Time;durP1;ratioP1;P1;durP2;ratioP2;P2;SDS_P1;SDS_P2;PMS_P1;PMS_P2;Temp;Humidity;BMP_temperature;BMP_pressure;BME280_temperature;BME280_humidity;BME280_pressure;Samples;Min_cycle;Max_cycle;Signal;HPM_P1;HPM_P2
2021/06/12 00:00:30;;;;;;;0.25;0.25;;;;;;;20.84;63.88;101989.34;5033096;28;20056;-82
2021/06/12 00:02:58;;;;;;;0.10;0.10;;;;;;;20.96;63.36;101977.13;5032282;28;20115;-81
2021/06/12 00:05:25;;;;;;;0.10;0.10;;;;;;;21.05;62.92;101975.81;5032675;28;20120;-83
2021/06/12 00:07:52;;;;;;;0.00;0.00;;;;;;;21.19;62.35;101967.13;5032831;28;20032;-82
2021/06/12 00:10:23;;;;;;;2.65;1.08;;;;;;;21.16;62.62;101963.63;5032447;28;20095;-83
2021/06/12 00:12:50;;;;;;;0.08;0.08;;;;;;;21.13;62.87;101963.78;5032690;28;20057;-82
2021/06/12 00:15:19;;;;;;;0.20;0.20;;;;;;;21.19;62.54;101973.38;5028925;28;20107;-82
2021/06/12 00:17:46;;;;;;;0.10;0.10;;;;;;;21.17;62.31;101969.88;5032717;28;20091;-83
2021/06/12 00:20:17;;;;;;;0.20;0.20;;;;;;;21.04;62.88;101960.63;5032544;28;20076;-82
2021/06/12 00:22:44;;;;;;;0.30;0.30;;;;;;;21.17;62.55;101961.78;5015061;28;20027;-83
2021/06/12 00:25:14;;;;;;;0.47;0.47;;;;;;;21.23;62.42;101974.97;5032118;28;20092;-82
2021/06/12 00:27:41;;;;;;;0.10;0.10;;;;;;;21.10;62.99;101960.34;5021927;28;20047;-83
2021/06/12 00:30:09;;;;;;;0.10;0.10;;;;;;;21.17;62.56;101967.19;5032416;28;20426;-83
2021/06/12 00:32:36;;;;;;;0.10;0.10;;;;;;;21.24;62.36;101960.56;5032865;28;20033;-82
2021/06/12 00:35:03;;;;;;;0.00;0.00;;;;;;;21.20;62.59;101953.56;5032358;28;20140;-83
2021/06/12 00:37:42;;;;;;;0.10;0.10;;;;;;;21.26;62.17;101947.91;5034114;28;20033;-82
2021/06/12 00:40:11;;;;;;;0.20;0.20;;;;;;;21.30;61.87;101954.88;5036168;28;20504;-83
2021/06/12 00:42:38;;;;;;;0.00;0.00;;;;;;;21.24;62.17;101957.84;5035359;28;20026;-83
2021/06/12 00:45:10;;;;;;;0.10;0.10;;;;;;;21.22;62.30;101949.00;5035796;28;20030;-83
2021/06/12 00:47:36;;;;;;;0.43;0.43;;;;;;;21.25;62.07;101946.13;5035484;28;20100;-83
2021/06/12 00:50:04;;;;;;;0.10;0.10;;;;;;;21.13;62.43;101950.31;5035883;28;20065;-82
2021/06/12 00:52:31;;;;;;;0.05;0.05;;;;;;;21.27;62.03;101954.16;5035909;28;20033;-83
2021/06/12 00:54:57;;;;;;;0.10;0.10;;;;;;;21.24;62.27;101960.56;5035445;28;20018;-82
2021/06/12 00:57:24;;;;;;;0.10;0.10;;;;;;;21.26;62.28;101965.88;5035597;28;20123;-81
2021/06/12 00:59:50;;;;;;;0.00;0.00;;;;;;;21.36;61.97;101955.53;5034003;28;20377;-82
2021/06/12 01:02:17;;;;;;;0.00;0.00;;;;;;;21.33;62.51;101960.13;5035251;28;20032;-83
2021/06/12 01:04:44;;;;;;;0.10;0.10;;;;;;;21.37;61.95;101959.97;5035390;28;20029;-82
2021/06/12 01:07:10;;;;;;;0.77;0.68;;;;;;;21.44;61.74;101956.03;5037716;28;20109;-83
2021/06/12 01:09:36;;;;;;;4.85;0.73;;;;;;;21.48;61.55;101952.25;5035221;28;20392;-82
2021/06/12 01:15:01;;;;;;;0.80;0.80;;;;;;;21.37;61.83;101954.59;5053694;28;20166;-81
2021/06/12 01:23:12;;;;;;;0.05;0.05;;;;;;;21.46;61.62;101963.09;5080064;27;20176;-82
2021/06/12 01:28:58;;;;;;;1.08;0.22;;;;;;;21.50;61.44;101964.69;5100028;27;20158;-82
2021/06/12 01:31:26;;;;;;;0.00;0.00;;;;;;;21.34;61.76;101967.25;5078653;28;20032;-82
2021/06/12 01:33:53;;;;;;;0.00;0.00;;;;;;;21.47;61.68;101963.97;5073144;28;20027;-83
2021/06/12 01:36:22;;;;;;;0.55;0.55;;;;;;;21.32;62.03;101974.56;5052448;28;20450;-82
2021/06/12 01:38:52;;;;;;;0.47;0.47;;;;;;;21.30;61.60;101970.19;5063066;28;20029;-82
2021/06/12 01:41:21;;;;;;;0.20;0.20;;;;;;;21.11;62.17;101965.66;5062181;28;20504;-82
2021/06/12 01:43:50;;;;;;;0.08;0.08;;;;;;;21.11;61.93;101954.00;5061521;28;20037;-82
2021/06/12 01:46:17;;;;;;;0.40;0.40;;;;;;;20.78;62.80;101951.91;5054974;28;20026;-82
2021/06/12 01:48:45;;;;;;;0.10;0.10;;;;;;;20.95;62.41;101957.41;5051446;28;20489;-81
2021/06/12 01:51:13;;;;;;;0.05;0.05;;;;;;;20.94;62.31;101952.97;5062621;28;20064;-82
2021/06/12 01:53:41;;;;;;;0.10;0.10;;;;;;;20.80;62.82;101958.13;5063652;28;20021;-81
2021/06/12 01:56:10;;;;;;;0.15;0.15;;;;;;;21.09;61.76;101951.38;5059556;28;20436;-82
2021/06/12 01:58:41;;;;;;;0.20;0.20;;;;;;;20.94;62.41;101958.34;5052786;28;20025;-82
2021/06/12 02:01:11;;;;;;;0.10;0.10;;;;;;;21.01;62.03;101953.56;5049990;28;20026;-82
2021/06/12 02:03:42;;;;;;;0.38;0.38;;;;;;;20.80;62.72;101956.28;5064799;28;20036;-82
2021/06/12 02:06:12;;;;;;;3.47;1.05;;;;;;;20.69;62.78;101951.34;5062468;28;20545;-82
2021/06/12 02:08:41;;;;;;;0.38;0.38;;;;;;;20.71;62.81;101948.66;5054207;28;20488;-81
2021/06/12 02:11:07;;;;;;;0.00;0.00;;;;;;;20.81;62.46;101946.38;5052684;28;20503;-82
2021/06/12 02:13:35;;;;;;;1.45;0.98;;;;;;;20.77;62.57;101942.09;5052533;28;20068;-82
2021/06/12 02:16:02;;;;;;;0.88;0.55;;;;;;;20.89;62.16;101949.59;5064295;28;20035;-82
2021/06/12 02:18:29;;;;;;;0.10;0.10;;;;;;;20.83;62.32;101952.59;5059741;28;20040;-82
2021/06/12 02:20:58;;;;;;;0.10;0.10;;;;;;;20.71;63.15;101951.34;5054596;28;20030;-82
2021/06/12 02:23:29;;;;;;;0.10;0.10;;;;;;;20.53;63.31;101953.00;5051547;28;20044;-82
2021/06/12 02:25:56;;;;;;;0.10;0.10;;;;;;;20.58;63.13;101948.28;5054464;28;20495;-82
2021/06/12 02:28:34;;;;;;;0.75;0.75;;;;;;;20.60;63.19;101949.09;5063811;28;20075;-82
2021/06/12 02:31:14;;;;;;;0.80;0.80;;;;;;;20.84;62.47;101940.88;5045912;28;20346;-82
2021/06/12 02:33:44;;;;;;;0.10;0.10;;;;;;;20.87;62.17;101940.72;5036943;28;20063;-82
2021/06/12 02:36:11;;;;;;;0.65;0.65;;;;;;;20.80;62.70;101944.66;5049117;28;20033;-81
2021/06/12 02:38:38;;;;;;;0.10;0.10;;;;;;;20.56;63.28;101936.72;5058252;28;20302;-82
2021/06/12 02:41:04;;;;;;;0.10;0.10;;;;;;;20.60;62.98;101934.72;5033768;28;20034;-82
2021/06/12 02:43:32;;;;;;;0.17;0.17;;;;;;;20.87;62.07;101938.03;5041325;28;20049;-82
2021/06/12 02:46:00;;;;;;;6.75;0.73;;;;;;;20.68;62.70;101941.50;5027971;28;20029;-83
2021/06/12 02:48:30;;;;;;;0.10;0.10;;;;;;;20.90;62.15;101937.00;5043899;28;20039;-82
2021/06/12 02:50:58;;;;;;;0.20;0.20;;;;;;;20.85;62.16;101942.63;5035263;28;20505;-82
2021/06/12 02:53:28;;;;;;;0.10;0.10;;;;;;;20.88;61.98;101950.53;5042393;28;20033;-82
2021/06/12 02:55:58;;;;;;;0.20;0.20;;;;;;;20.93;61.78;101950.34;5025660;28;20048;-82
2021/06/12 02:58:27;;;;;;;1.27;1.17;;;;;;;20.96;61.51;101958.28;5034429;28;20057;-81
2021/06/12 03:00:56;;;;;;;0.32;0.32;;;;;;;20.87;61.78;101956.88;5046816;28;20377;-82
2021/06/12 03:03:26;;;;;;;0.10;0.10;;;;;;;20.77;62.15;101942.09;5036895;28;20022;-82
2021/06/12 03:05:58;;;;;;;0.50;0.50;;;;;;;20.63;62.51;101943.53;5037313;28;20033;-82
2021/06/12 03:08:28;;;;;;;;;;;;;;;20.79;62.11;101945.59;5036945;28;20548;-82
2021/06/12 03:10:55;;;;;;;0.20;0.20;;;;;;;20.66;62.30;101954.19;5035039;28;20442;-82
2021/06/12 03:13:26;;;;;;;0.45;0.45;;;;;;;20.53;62.90;101956.53;5036686;28;20132;-82
2021/06/12 03:15:55;;;;;;;0.40;0.40;;;;;;;20.68;62.21;101957.69;5033878;28;20384;-82
2021/06/12 03:18:23;;;;;;;0.10;0.10;;;;;;;20.71;62.16;101963.88;5034668;28;20433;-82
2021/06/12 03:20:52;;;;;;;3.10;1.08;;;;;;;20.78;61.87;101957.31;5039829;28;20030;-82
2021/06/12 03:23:19;;;;;;;0.10;0.10;;;;;;;20.73;62.15;101964.72;5034033;28;20112;-82
2021/06/12 03:25:45;;;;;;;0.00;0.00;;;;;;;20.76;62.20;101959.19;5036323;28;20025;-82
2021/06/12 03:28:13;;;;;;;0.57;0.57;;;;;;;20.79;61.81;101953.69;5043737;28;20033;-82
2021/06/12 03:30:39;;;;;;;0.10;0.10;;;;;;;20.88;61.80;101950.53;5039487;28;20025;-83
2021/06/12 03:33:07;;;;;;;0.28;0.28;;;;;;;20.85;61.33;101959.66;5038938;28;20096;-82
2021/06/12 03:35:34;;;;;;;0.20;0.20;;;;;;;20.92;61.10;101962.97;5038597;28;20152;-83
2021/06/12 03:38:01;;;;;;;2.67;0.95;;;;;;;20.96;61.11;101980.72;5042506;28;20041;-82
2021/06/12 03:40:27;;;;;;;0.43;0.43;;;;;;;20.67;61.38;101988.25;5034212;28;20056;-82
2021/06/12 03:42:56;;;;;;;0.00;0.00;;;;;;;20.72;61.02;101984.50;5033710;28;20059;-83
2021/06/12 03:45:24;;;;;;;0.10;0.10;;;;;;;20.69;60.72;101972.91;5034061;28;20036;-83
2021/06/12 03:47:52;;;;;;;0.20;0.20;;;;;;;20.48;61.22;101980.09;5038853;28;20029;-84
2021/06/12 03:50:21;;;;;;;0.10;0.10;;;;;;;20.54;61.24;101987.06;5049401;28;20057;-82
2021/06/12 03:52:50;;;;;;;0.10;0.10;;;;;;;20.36;61.44;101988.72;5038471;28;20037;-82
2021/06/12 03:55:17;;;;;;;1.25;0.82;;;;;;;20.31;61.60;101985.34;5036132;28;20051;-82
2021/06/12 03:57:44;;;;;;;0.43;0.43;;;;;;;20.33;61.42;101978.09;5034144;28;20120;-83
2021/06/12 04:00:11;;;;;;;0.17;0.17;;;;;;;20.29;61.42;101977.34;5041735;28;20024;-82
2021/06/12 04:02:38;;;;;;;0.00;0.00;;;;;;;20.30;61.49;101983.59;5028549;28;20046;-82
2021/06/12 04:05:05;;;;;;;0.10;0.10;;;;;;;20.57;60.55;101984.22;5032983;28;20035;-82
2021/06/12 04:07:32;;;;;;;0.00;0.00;;;;;;;20.59;60.68;101990.41;5035143;28;20124;-82
2021/06/12 04:09:58;;;;;;;0.98;0.73;;;;;;;20.36;61.41;102000.38;5036914;28;20025;-82
2021/06/12 04:12:24;;;;;;;0.50;0.50;;;;;;;20.29;61.18;102012.31;5026220;28;20030;-82
2021/06/12 04:14:50;;;;;;;0.20;0.20;;;;;;;20.25;61.10;102013.41;5040627;28;20057;-82
2021/06/12 04:17:20;;;;;;;0.30;0.30;;;;;;;20.39;60.90;102020.00;5031811;28;20539;-83
2021/06/12 04:19:46;;;;;;;1.13;0.55;;;;;;;20.24;61.10;102005.38;5038006;28;20427;-82
2021/06/12 04:22:13;;;;;;;0.28;0.28;;;;;;;20.34;60.88;101996.84;5025549;28;20156;-82
2021/06/12 04:24:39;;;;;;;0.05;0.05;;;;;;;20.32;60.60;102014.88;5025754;28;20171;-82
2021/06/12 04:27:05;;;;;;;0.57;0.57;;;;;;;20.52;60.28;102010.47;5026246;28;20437;-83
2021/06/12 04:29:32;;;;;;;0.20;0.20;;;;;;;20.39;60.36;101998.47;5038305;28;20068;-83
2021/06/12 04:31:58;;;;;;;0.20;0.20;;;;;;;20.49;60.07;102000.69;5037916;28;20380;-83
2021/06/12 04:34:24;;;;;;;0.08;0.08;;;;;;;20.48;59.96;102008.84;5034164;28;20025;-83
2021/06/12 04:36:50;;;;;;;0.10;0.10;;;;;;;20.53;59.55;102015.78;5032552;28;20106;-83
2021/06/12 04:39:17;;;;;;;0.32;0.32;;;;;;;20.58;59.30;102015.56;5030017;28;20382;-83
2021/06/12 04:41:43;;;;;;;0.00;0.00;;;;;;;20.60;59.28;102015.50;5041252;28;20013;-83
2021/06/12 04:44:10;;;;;;;0.20;0.20;;;;;;;20.62;59.28;102006.44;5036203;28;20057;-83
2021/06/12 04:46:36;;;;;;;0.20;0.20;;;;;;;20.49;59.10;102006.09;5026137;28;20047;-83
2021/06/12 04:49:03;;;;;;;0.10;0.10;;;;;;;20.62;59.07;102003.75;5035062;28;20544;-83
2021/06/12 04:51:29;;;;;;;0.65;0.65;;;;;;;20.71;58.65;101996.19;5038601;28;20526;-83
2021/06/12 04:53:55;;;;;;;0.17;0.17;;;;;;;20.69;58.36;101997.13;5024227;28;20051;-83
2021/06/12 04:56:21;;;;;;;0.15;0.15;;;;;;;20.79;58.38;102000.31;5035749;28;20049;-83
2021/06/12 04:58:47;;;;;;;0.10;0.10;;;;;;;20.93;57.89;101988.91;5032847;28;20029;-82
2021/06/12 05:01:13;;;;;;;0.08;0.08;;;;;;;20.94;57.68;101989.81;5025377;28;20412;-82
2021/06/12 05:03:39;;;;;;;0.00;0.00;;;;;;;20.98;57.23;101997.66;5029138;28;20025;-82
2021/06/12 05:06:06;;;;;;;0.00;0.00;;;;;;;20.99;56.70;102009.34;5033519;28;20025;-83
2021/06/12 05:08:32;;;;;;;0.45;0.45;;;;;;;21.15;56.68;102014.91;5034697;28;20065;-83
2021/06/12 05:10:58;;;;;;;0.00;0.00;;;;;;;20.96;55.95;102031.91;5028386;28;20034;-82
2021/06/12 05:13:24;;;;;;;0.10;0.10;;;;;;;20.97;55.99;102025.56;5027166;28;20362;-82
2021/06/12 05:15:51;;;;;;;0.10;0.10;;;;;;;21.07;55.44;102038.63;5045562;28;20485;-83
2021/06/12 05:18:18;;;;;;;0.10;0.10;;;;;;;20.99;55.59;102036.28;5045350;28;20044;-82
2021/06/12 05:20:44;;;;;;;0.15;0.15;;;;;;;21.10;54.42;102039.34;5037175;28;20057;-83
2021/06/12 05:23:10;;;;;;;0.20;0.20;;;;;;;21.20;54.78;102033.53;5033566;28;20464;-83
2021/06/12 05:25:37;;;;;;;0.17;0.17;;;;;;;20.99;54.21;102025.50;5018752;28;20038;-84
2021/06/12 05:28:04;;;;;;;0.10;0.10;;;;;;;20.95;53.99;102023.91;5034375;28;20056;-82
2021/06/12 05:30:30;;;;;;;0.10;0.10;;;;;;;21.11;53.87;102018.66;5040462;28;20048;-83
2021/06/12 05:32:56;;;;;;;0.00;0.00;;;;;;;21.08;53.92;102024.22;5030150;28;20454;-83
2021/06/12 05:35:22;;;;;;;0.05;0.05;;;;;;;21.20;53.79;102026.34;5030999;28;20116;-83
2021/06/12 05:37:49;;;;;;;0.10;0.10;;;;;;;21.23;52.91;102033.41;5049484;28;20029;-82
2021/06/12 05:40:15;;;;;;;0.10;0.10;;;;;;;21.16;53.11;102039.06;5035835;28;20487;-84
2021/06/12 05:42:41;;;;;;;0.10;0.10;;;;;;;21.09;53.09;102052.91;5025603;28;20054;-83
2021/06/12 05:45:10;;;;;;;0.20;0.20;;;;;;;20.96;52.25;102048.06;5031250;28;20497;-83
2021/06/12 05:47:36;;;;;;;0.20;0.20;;;;;;;20.95;51.87;102051.69;5030826;28;20029;-81
2021/06/12 05:50:04;;;;;;;0.13;0.13;;;;;;;21.07;51.49;102055.69;5020113;28;20034;-83
2021/06/12 05:52:30;;;;;;;0.38;0.38;;;;;;;21.11;51.92;102057.28;5022146;28;20053;-82
2021/06/12 05:54:56;;;;;;;1.67;0.90;;;;;;;21.10;51.85;102051.97;5028859;28;20034;-83
2021/06/12 05:57:23;;;;;;;0.10;0.10;;;;;;;21.24;50.83;102045.94;5024461;28;20042;-84
2021/06/12 05:59:49;;;;;;;0.10;0.10;;;;;;;21.28;51.17;102040.34;5033055;28;20030;-83
2021/06/12 06:02:15;;;;;;;0.25;0.25;;;;;;;21.21;50.03;102048.75;5032991;28;20029;-83
2021/06/12 06:04:41;;;;;;;0.10;0.10;;;;;;;21.15;50.72;102039.16;5025570;28;20088;-83
2021/06/12 06:07:07;;;;;;;0.00;0.00;;;;;;;21.40;50.53;102040.72;5026433;28;20030;-84
2021/06/12 06:09:33;;;;;;;0.10;0.10;;;;;;;21.44;50.23;102042.31;5032015;28;20587;-83
2021/06/12 06:12:00;;;;;;;0.10;0.10;;;;;;;21.29;49.96;102050.16;5032682;28;20022;-83
2021/06/12 06:14:26;;;;;;;0.10;0.10;;;;;;;21.45;50.11;102058.41;5043980;28;20399;-83
2021/06/12 06:16:52;;;;;;;0.10;0.10;;;;;;;21.41;49.57;102064.91;5043766;28;20108;-83
2021/06/12 06:19:18;;;;;;;0.08;0.08;;;;;;;21.45;48.56;102063.81;5038964;28;20480;-84
2021/06/12 06:21:44;;;;;;;0.15;0.15;;;;;;;21.36;48.71;102066.06;5029145;28;20550;-83
2021/06/12 06:24:11;;;;;;;0.55;0.55;;;;;;;21.38;48.28;102078.50;5035810;28;20033;-84
2021/06/12 06:26:37;;;;;;;0.10;0.10;;;;;;;21.40;48.55;102075.78;5044919;28;20503;-82
2021/06/12 06:29:03;;;;;;;0.30;0.30;;;;;;;21.41;47.99;102080.19;5044489;28;20045;-82
2021/06/12 06:31:29;;;;;;;0.00;0.00;;;;;;;21.51;47.91;102081.53;5043988;28;20036;-83
2021/06/12 06:33:56;;;;;;;0.10;0.10;;;;;;;21.54;48.16;102085.91;5039676;28;20160;-83
2021/06/12 06:36:22;;;;;;;0.05;0.05;;;;;;;21.56;47.75;102084.91;5028172;28;20389;-83
2021/06/12 06:38:49;;;;;;;3.08;1.45;;;;;;;21.74;47.92;102082.31;5041266;28;20033;-83
2021/06/12 06:41:15;;;;;;;0.00;0.00;;;;;;;21.90;47.43;102080.59;5041857;28;20026;-83
2021/06/12 06:43:41;;;;;;;0.10;0.10;;;;;;;22.01;46.07;102087.31;5041373;28;20405;-83
2021/06/12 06:46:07;;;;;;;0.55;0.55;;;;;;;21.92;46.51;102078.72;5036073;28;20036;-83
2021/06/12 06:48:34;;;;;;;0.08;0.08;;;;;;;22.14;47.09;102077.66;5039061;28;20096;-83
2021/06/12 06:51:01;;;;;;;0.00;0.00;;;;;;;22.02;46.57;102076.47;5030054;28;20048;-83
2021/06/12 06:53:32;;;;;;;0.30;0.30;;;;;;;22.19;46.89;102078.31;5032914;28;20462;-83
2021/06/12 06:56:01;;;;;;;0.00;0.00;;;;;;;22.22;45.80;102083.56;5033579;28;20026;-82
2021/06/12 06:58:28;;;;;;;0.10;0.10;;;;;;;22.36;46.12;102090.97;5034896;28;20099;-82
2021/06/12 07:00:55;;;;;;;0.00;0.00;;;;;;;22.21;45.80;102092.63;5031668;28;20546;-83
2021/06/12 07:03:22;;;;;;;10.60;0.80;;;;;;;22.28;45.20;102083.25;5035683;28;20091;-83
2021/06/12 07:05:48;;;;;;;0.00;0.00;;;;;;;22.25;44.72;102082.53;5043528;28;20036;-84
2021/06/12 07:08:14;;;;;;;3.03;1.02;;;;;;;22.38;44.83;102077.41;5025547;28;20488;-84
2021/06/12 07:10:41;;;;;;;0.38;0.38;;;;;;;22.41;44.91;102088.09;5030299;28;20120;-86
2021/06/12 07:13:07;;;;;;;0.10;0.10;;;;;;;22.32;44.65;102088.50;5021042;28;20041;-86
2021/06/12 07:15:34;;;;;;;0.10;0.10;;;;;;;22.65;44.70;102094.06;5034468;28;20181;-83
2021/06/12 07:18:00;;;;;;;0.25;0.25;;;;;;;22.55;43.92;102096.34;5030579;28;20029;-79
2021/06/12 07:20:27;;;;;;;2.95;0.63;;;;;;;22.58;44.08;102109.72;5032686;28;20033;-84
2021/06/12 07:22:55;;;;;;;0.00;0.00;;;;;;;22.39;45.07;102111.56;5024083;28;20473;-83
2021/06/12 07:25:22;;;;;;;0.00;0.00;;;;;;;22.44;45.18;102112.22;5023080;28;20041;-84
2021/06/12 07:27:48;;;;;;;1.52;0.50;;;;;;;22.30;44.83;102116.44;5017229;28;20124;-84
2021/06/12 07:30:15;;;;;;;0.38;0.38;;;;;;;22.34;45.31;102119.00;5023967;28;20381;-83
2021/06/12 07:32:42;;;;;;;0.90;0.90;;;;;;;22.32;45.19;102129.00;5022515;28;20381;-84
2021/06/12 07:35:08;;;;;;;0.80;0.80;;;;;;;22.32;44.97;102119.09;5024588;28;20032;-84
2021/06/12 07:37:35;;;;;;;3.30;0.43;;;;;;;22.34;44.78;102133.38;5020244;28;20034;-84
2021/06/12 07:40:01;;;;;;;0.10;0.10;;;;;;;22.23;44.61;102127.63;5034622;28;20503;-84
2021/06/12 07:42:27;;;;;;;0.30;0.30;;;;;;;22.32;44.05;102134.41;5034026;28;20424;-84
2021/06/12 07:44:54;;;;;;;0.10;0.10;;;;;;;22.49;44.44;102131.75;5034056;28;20026;-85
2021/06/12 07:47:20;;;;;;;0.00;0.00;;;;;;;22.34;43.81;102146.00;5034186;28;20040;-84
2021/06/12 07:49:46;;;;;;;0.10;0.10;;;;;;;22.22;43.95;102142.97;5033888;28;20018;-84
2021/06/12 07:52:12;;;;;;;1.65;0.98;;;;;;;22.20;44.12;102134.03;5033064;28;20036;-84
2021/06/12 07:54:39;;;;;;;0.30;0.30;;;;;;;22.06;44.33;102145.50;5034224;28;20021;-84
2021/06/12 07:57:05;;;;;;;0.40;0.40;;;;;;;21.92;44.18;102145.28;5034055;28;20032;-85
2021/06/12 07:59:32;;;;;;;0.30;0.30;;;;;;;21.97;44.51;102149.53;5033723;28;20025;-84
2021/06/12 08:01:58;;;;;;;0.10;0.10;;;;;;;21.96;44.29;102141.53;5033772;28;20108;-84
2021/06/12 08:04:24;;;;;;;0.52;0.30;;;;;;;22.03;44.62;102136.69;5029076;28;20037;-84
2021/06/12 08:06:51;;;;;;;0.10;0.10;;;;;;;22.24;44.27;102135.66;5033614;28;20037;-83
2021/06/12 08:09:18;;;;;;;0.10;0.10;;;;;;;22.34;44.26;102146.00;5031824;28;20040;-84
2021/06/12 08:11:45;;;;;;;1.27;1.08;;;;;;;22.41;44.17;102142.09;5026468;28;20497;-84
2021/06/12 08:14:11;;;;;;;0.15;0.15;;;;;;;22.44;43.52;102144.63;5023153;28;20042;-83
2021/06/12 08:16:37;;;;;;;0.00;0.00;;;;;;;22.69;43.68;102148.81;5033068;28;20033;-84
2021/06/12 08:19:04;;;;;;;0.10;0.10;;;;;;;22.71;43.73;102152.31;5033450;28;20020;-84
2021/06/12 08:21:30;;;;;;;0.30;0.30;;;;;;;22.78;43.29;102159.16;5033762;28;20260;-83
2021/06/12 08:23:56;;;;;;;0.50;0.50;;;;;;;22.75;42.75;102159.28;5033427;28;20049;-83
2021/06/12 08:26:23;;;;;;;0.10;0.10;;;;;;;22.41;42.51;102152.88;5030827;28;20025;-83
2021/06/12 08:28:50;;;;;;;0.20;0.20;;;;;;;22.66;42.87;102157.94;5029979;28;20036;-85
2021/06/12 08:31:16;;;;;;;0.05;0.05;;;;;;;22.75;42.47;102156.59;5022332;28;20057;-85
2021/06/12 08:33:43;;;;;;;0.10;0.10;;;;;;;22.75;42.53;102170.09;5020894;28;20421;-82
2021/06/12 08:36:09;;;;;;;0.28;0.28;;;;;;;22.66;42.21;102173.28;5024292;28;20025;-81
2021/06/12 08:38:36;;;;;;;0.10;0.10;;;;;;;22.87;42.82;102165.91;5031475;28;20025;-81
2021/06/12 08:41:03;;;;;;;0.10;0.10;;;;;;;22.81;42.63;102171.63;5030852;28;20091;-81
2021/06/12 08:43:31;;;;;;;0.10;0.10;;;;;;;22.49;42.46;102176.81;5024789;28;20030;-81
2021/06/12 08:45:59;;;;;;;0.10;0.10;;;;;;;22.52;42.85;102179.34;5027296;28;20041;-81
2021/06/12 08:48:27;;;;;;;0.10;0.10;;;;;;;22.65;42.43;102171.53;5021723;28;20037;-82
2021/06/12 08:50:54;;;;;;;0.28;0.28;;;;;;;22.52;42.99;102177.53;5027875;28;20085;-82
2021/06/12 08:53:21;;;;;;;0.10;0.10;;;;;;;22.71;43.44;102180.19;5028188;28;20079;-83
2021/06/12 08:55:48;;;;;;;0.10;0.10;;;;;;;22.41;42.45;102185.28;5032984;28;20091;-82
2021/06/12 08:58:14;;;;;;;0.00;0.00;;;;;;;22.71;41.51;102182.03;5028398;28;20461;-82
2021/06/12 09:00:42;;;;;;;0.10;0.10;;;;;;;22.57;41.77;102191.69;5029337;28;20607;-84
2021/06/12 09:03:12;;;;;;;0.10;0.10;;;;;;;22.82;41.90;102185.06;5032979;28;20030;-83
2021/06/12 09:11:12;;;;;;;0.10;0.10;;;;;;;23.01;40.06;102200.34;5094888;27;20707;-81
2021/06/12 09:19:08;;;;;;;0.63;0.55;;;;;;;22.99;39.84;102203.13;5126412;27;20160;-82
2021/06/12 09:21:38;;;;;;;0.10;0.10;;;;;;;23.11;39.87;102201.59;5108411;28;20032;-81
2021/06/12 09:24:19;;;;;;;3.47;0.85;;;;;;;23.20;39.18;102203.00;5104485;28;20031;-81
2021/06/12 09:29:37;;;;;;;0.65;0.57;;;;;;;23.24;38.36;102200.06;5079965;27;20622;-82
2021/06/12 09:34:55;;;;;;;0.47;0.47;;;;;;;23.25;38.88;102214.44;5063100;27;20170;-82
2021/06/12 09:37:24;;;;;;;8.18;1.85;;;;;;;23.37;37.66;102218.34;5056391;28;20071;-81
2021/06/12 09:40:11;;;;;;;0.10;0.10;;;;;;;23.33;36.99;102214.94;5054445;28;20037;-84
2021/06/12 09:42:59;;;;;;;0.40;0.40;;;;;;;23.67;36.95;102223.09;5048339;28;20404;-83
2021/06/12 09:45:32;;;;;;;0.10;0.10;;;;;;;23.85;37.53;102219.38;5055581;28;20033;-81
2021/06/12 09:48:19;;;;;;;0.10;0.10;;;;;;;23.82;36.89;102224.09;5052425;28;20032;-81
2021/06/12 09:50:48;;;;;;;0.10;0.10;;;;;;;23.48;37.23;102244.81;5045215;28;20037;-81
2021/06/12 09:56:08;;;;;;;0.10;0.10;;;;;;;24.10;37.99;102231.59;5074661;27;20192;-82
2021/06/12 09:58:35;;;;;;;0.08;0.08;;;;;;;24.01;36.63;102232.09;5064954;28;20035;-87
2021/06/12 10:01:11;;;;;;;0.13;0.13;;;;;;;23.98;36.78;102232.28;5069321;28;20025;-80
2021/06/12 10:03:37;;;;;;;0.10;0.10;;;;;;;23.74;36.35;102232.63;5065599;28;20569;-84
2021/06/12 10:06:24;;;;;;;0.35;0.35;;;;;;;23.80;36.89;102240.41;5066255;28;20033;-82
2021/06/12 10:09:01;;;;;;;0.17;0.17;;;;;;;23.61;36.10;102236.94;5071134;28;20036;-82
2021/06/12 10:11:30;;;;;;;0.17;0.17;;;;;;;23.84;37.67;102243.81;5071447;28;20242;-83
2021/06/12 10:13:57;;;;;;;3.30;0.45;;;;;;;23.98;36.58;102259.34;5069113;28;20059;-84
2021/06/12 10:16:25;;;;;;;0.45;0.45;;;;;;;23.83;36.00;102248.34;5070617;28;20028;-83
2021/06/12 10:18:54;;;;;;;0.10;0.10;;;;;;;23.97;35.78;102242.22;5070487;28;20032;-86
2021/06/12 10:21:21;;;;;;;0.08;0.08;;;;;;;24.13;36.80;102236.84;5068954;28;20033;-83
2021/06/12 10:23:49;;;;;;;0.10;0.10;;;;;;;24.23;36.19;102246.19;5070246;28;20025;-84
2021/06/12 10:26:19;;;;;;;0.10;0.10;;;;;;;24.35;36.10;102246.47;5070335;28;20025;-82
2021/06/12 10:28:46;;;;;;;0.10;0.10;;;;;;;24.10;36.58;102239.72;5070216;28;20033;-83
2021/06/12 10:31:18;;;;;;;0.20;0.20;;;;;;;24.52;37.18;102235.56;5069886;28;20107;-82
2021/06/12 10:33:47;;;;;;;0.20;0.20;;;;;;;24.57;35.69;102242.56;5070472;28;20567;-84
2021/06/12 10:38:53;;;;;;;0.10;0.10;;;;;;;24.37;37.05;102241.84;5091101;27;20247;-82
2021/06/12 10:41:29;;;;;;;0.10;0.10;;;;;;;24.23;35.20;102251.59;5091068;28;20033;-82
2021/06/12 10:43:59;;;;;;;0.30;0.30;;;;;;;23.85;35.67;102251.88;5087166;28;20033;-81
2021/06/12 10:46:28;;;;;;;0.10;0.10;;;;;;;24.02;35.39;102250.97;5071232;28;20021;-82
2021/06/12 10:51:51;;;;;;;0.10;0.10;;;;;;;24.06;35.94;102254.38;5089543;27;20153;-83
2021/06/12 10:54:19;;;;;;;0.10;0.10;;;;;;;23.97;36.33;102254.88;5084243;28;20029;-82
2021/06/12 11:05:10;;;;;;;1.05;0.68;;;;;;;24.18;35.76;102259.13;5076221;27;20153;-81
2021/06/12 11:07:38;;;;;;;0.10;0.10;;;;;;;24.22;35.79;102265.25;5070782;28;20037;-81
2021/06/12 11:12:52;;;;;;;0.10;0.10;;;;;;;24.08;37.57;102270.56;5089846;27;20618;-82
2021/06/12 11:18:22;;;;;;;0.08;0.08;;;;;;;24.51;36.92;102276.28;5127128;27;20635;-82
2021/06/12 11:21:06;;;;;;;0.63;0.63;;;;;;;24.23;37.15;102272.41;5111289;28;20479;-84
2021/06/12 11:23:54;;;;;;;0.08;0.08;;;;;;;24.38;37.44;102271.53;5111897;28;20032;-82
2021/06/12 11:26:21;;;;;;;0.40;0.40;;;;;;;24.66;38.46;102267.31;5111363;28;20039;-82
2021/06/12 11:29:09;;;;;;;4.95;0.73;;;;;;;24.95;36.68;102261.16;5111233;28;20420;-82
2021/06/12 11:31:37;;;;;;;0.10;0.10;;;;;;;24.91;37.39;102265.00;5111475;28;20024;-82
2021/06/12 11:34:25;;;;;;;0.10;0.10;;;;;;;24.96;35.94;102276.47;5111250;28;20039;-82
2021/06/12 11:37:15;;;;;;;2.80;0.88;;;;;;;24.84;35.80;102278.91;5110818;28;20621;-82
2021/06/12 11:39:46;;;;;;;0.10;0.10;;;;;;;24.94;36.03;102278.41;5109893;28;20043;-82
2021/06/12 11:42:12;;;;;;;0.10;0.10;;;;;;;24.99;36.45;102276.28;5111065;28;20081;-82
2021/06/12 11:44:38;;;;;;;0.00;0.00;;;;;;;25.09;36.50;102279.34;5110713;28;20059;-82
2021/06/12 11:47:05;;;;;;;0.08;0.08;;;;;;;24.79;35.20;102283.75;5110463;28;20023;-86
2021/06/12 11:49:31;;;;;;;0.10;0.10;;;;;;;24.86;35.37;102277.00;5110750;28;20028;-82
2021/06/12 11:51:57;;;;;;;0.03;0.03;;;;;;;24.92;35.67;102278.47;5110914;28;20055;-82
2021/06/12 11:54:31;;;;;;;0.20;0.20;;;;;;;25.21;35.76;102270.47;5110708;28;20028;-84
2021/06/12 11:57:01;;;;;;;0.10;0.10;;;;;;;24.81;35.34;102283.66;5110605;28;20032;-84
2021/06/12 11:59:30;;;;;;;0.00;0.00;;;;;;;24.74;35.76;102288.56;5110539;28;20052;-84
2021/06/12 12:02:01;;;;;;;0.20;0.20;;;;;;;24.99;36.59;102292.56;5110515;28;20032;-81
2021/06/12 12:04:35;;;;;;;0.00;0.00;;;;;;;25.10;36.00;102289.22;5111120;28;20028;-84
2021/06/12 12:07:04;;;;;;;0.00;0.00;;;;;;;24.99;37.25;102287.13;5110672;28;20115;-84
2021/06/12 12:12:11;;;;;;;0.17;0.17;;;;;;;24.85;35.85;102291.53;5090095;27;20526;-84
2021/06/12 12:14:41;;;;;;;0.00;0.00;;;;;;;24.87;35.62;102283.28;5082309;28;20098;-83
2021/06/12 12:17:24;;;;;;;0.10;0.10;;;;;;;24.97;35.50;102273.69;5070518;28;20039;-83
2021/06/12 12:20:05;;;;;;;0.40;0.40;;;;;;;25.19;34.50;102267.84;5070685;28;20031;-82
2021/06/12 12:22:49;;;;;;;0.00;0.00;;;;;;;25.20;34.34;102282.28;5070537;28;20024;-82